createdAt,value
2019-04-30T00:00:21.582Z,996.22
2019-04-30T00:01:21.494Z,996.12
2019-04-30T00:02:21.482Z,996.19
2019-04-30T00:03:21.500Z,996.20
2019-04-30T00:04:21.484Z,996.13
2019-04-30T00:05:21.475Z,996.17
2019-04-30T00:06:21.462Z,996.16
2019-04-30T00:07:21.447Z,996.12
2019-04-30T00:08:21.472Z,996.05
2019-04-30T00:09:21.477Z,996.00
2019-04-30T00:10:21.548Z,995.94
2019-04-30T00:11:21.485Z,995.96
2019-04-30T00:12:21.463Z,995.93
2019-04-30T00:13:21.440Z,996.01
2019-04-30T00:14:22.065Z,996.03
2019-04-30T00:15:21.436Z,996.00
2019-04-30T00:16:21.496Z,996.05
2019-04-30T00:17:21.438Z,995.95
2019-04-30T00:18:21.383Z,995.96
2019-04-30T00:19:21.386Z,996.01
2019-04-30T00:20:21.545Z,996.03
2019-04-30T00:21:21.454Z,996.01
2019-04-30T00:22:30.942Z,995.98
2019-04-30T00:23:27.110Z,995.98
2019-04-30T00:24:23.407Z,995.96
2019-04-30T00:25:26.894Z,995.94
2019-04-30T00:26:25.288Z,995.99
2019-04-30T00:27:28.405Z,995.98
2019-04-30T00:28:22.426Z,995.91
2019-04-30T00:29:27.086Z,995.99
2019-04-30T00:30:25.118Z,995.97
2019-04-30T00:31:23.792Z,995.98
2019-04-30T00:32:23.320Z,995.97
2019-04-30T00:33:22.302Z,995.94
2019-04-30T00:34:22.289Z,996.05
2019-04-30T00:35:21.391Z,996.03
2019-04-30T00:36:21.643Z,995.95
2019-04-30T00:37:21.319Z,996.05
2019-04-30T00:38:21.307Z,996.04
2019-04-30T00:39:21.281Z,996.02
2019-04-30T00:40:21.767Z,996.01
2019-04-30T00:41:22.335Z,995.98
2019-04-30T00:42:24.169Z,995.91
2019-04-30T00:43:25.146Z,995.95
2019-04-30T00:44:24.806Z,995.94
2019-04-30T00:45:25.097Z,995.94
2019-04-30T00:46:25.470Z,995.84
2019-04-30T00:47:23.230Z,995.91
2019-04-30T00:48:28.177Z,995.93
2019-04-30T00:49:26.094Z,995.89
2019-04-30T00:50:22.182Z,995.91
2019-04-30T00:51:21.581Z,995.93
2019-04-30T00:52:21.175Z,995.90
2019-04-30T00:53:21.180Z,995.99
2019-04-30T00:54:22.493Z,995.87
2019-04-30T00:55:24.881Z,995.86
2019-04-30T00:56:26.451Z,995.96
2019-04-30T00:57:26.332Z,995.97
2019-04-30T00:58:28.985Z,995.96
2019-04-30T00:59:24.951Z,995.96
2019-04-30T01:00:25.927Z,995.98
2019-04-30T01:01:23.145Z,995.88
2019-04-30T01:02:29.187Z,995.92
2019-04-30T01:03:23.106Z,995.97
2019-04-30T01:04:24.524Z,995.99
2019-04-30T01:05:23.117Z,995.93
2019-04-30T01:06:24.620Z,995.95
2019-04-30T01:07:23.130Z,995.91
2019-04-30T01:08:24.469Z,995.96
2019-04-30T01:09:23.107Z,996.00
2019-04-30T01:10:24.760Z,995.96
2019-04-30T01:11:23.044Z,995.96
2019-04-30T01:12:52.980Z,995.99
2019-04-30T01:13:21.010Z,995.97
2019-04-30T01:14:23.258Z,995.99
2019-04-30T01:15:22.995Z,995.95
2019-04-30T01:16:23.634Z,995.91
2019-04-30T01:17:22.989Z,995.90
2019-04-30T01:18:23.539Z,995.94
2019-04-30T01:19:30.019Z,995.99
2019-04-30T01:20:24.006Z,995.91
2019-04-30T01:21:22.977Z,995.85
2019-04-30T01:22:27.788Z,995.85
2019-04-30T01:23:22.975Z,995.84
2019-04-30T01:24:23.402Z,995.91
2019-04-30T01:25:22.965Z,995.87
2019-04-30T01:26:22.780Z,995.85
2019-04-30T01:27:21.954Z,995.87
2019-04-30T01:28:24.238Z,995.91
2019-04-30T01:29:20.941Z,995.89
2019-04-30T01:30:22.667Z,995.83
2019-04-30T01:31:21.920Z,995.86
2019-04-30T01:32:21.268Z,995.88
2019-04-30T01:33:21.908Z,995.88
2019-04-30T01:34:20.927Z,995.81
2019-04-30T01:35:23.765Z,995.84
2019-04-30T01:36:22.890Z,995.85
2019-04-30T01:37:28.407Z,995.86
2019-04-30T01:38:22.870Z,995.83
2019-04-30T01:39:23.765Z,995.87
2019-04-30T01:40:22.850Z,995.84
2019-04-30T01:41:27.305Z,995.83
2019-04-30T01:42:22.897Z,995.88
2019-04-30T01:43:30.435Z,995.83
2019-04-30T01:44:21.824Z,995.76
2019-04-30T01:45:23.279Z,995.89
2019-04-30T01:46:22.811Z,995.85
2019-04-30T01:47:26.886Z,995.84
2019-04-30T01:48:22.804Z,995.85
2019-04-30T01:49:25.599Z,995.83
2019-04-30T01:50:21.781Z,995.80
2019-04-30T01:51:21.840Z,995.82
2019-04-30T01:52:21.765Z,995.84
2019-04-30T01:53:20.773Z,995.88
2019-04-30T01:54:23.983Z,995.85
2019-04-30T01:55:21.759Z,995.87
2019-04-30T01:56:20.752Z,995.89
2019-04-30T01:57:20.743Z,995.86
2019-04-30T01:58:20.743Z,995.83
2019-04-30T01:59:20.722Z,995.86
2019-04-30T02:00:20.733Z,995.82
2019-04-30T02:01:20.725Z,995.85
2019-04-30T02:02:21.716Z,995.84
2019-04-30T02:03:20.722Z,995.77
2019-04-30T02:04:20.723Z,995.81
2019-04-30T02:05:20.700Z,995.80
2019-04-30T02:06:20.689Z,995.86
2019-04-30T02:07:20.693Z,995.84
2019-04-30T02:08:20.692Z,995.82
2019-04-30T02:09:20.763Z,995.81
2019-04-30T02:10:21.660Z,995.88
2019-04-30T02:11:20.651Z,995.84
2019-04-30T02:12:21.889Z,995.79
2019-04-30T02:13:21.667Z,995.84
2019-04-30T02:14:20.631Z,995.87
2019-04-30T02:15:20.633Z,995.85
2019-04-30T02:16:21.138Z,995.83
2019-04-30T02:17:21.631Z,995.78
2019-04-30T02:18:20.633Z,995.87
2019-04-30T02:19:20.624Z,995.80
2019-04-30T02:20:20.606Z,995.91
2019-04-30T02:21:20.603Z,995.90
2019-04-30T02:22:20.593Z,995.92
2019-04-30T02:23:20.603Z,995.87
2019-04-30T02:24:20.576Z,995.94
2019-04-30T02:25:20.577Z,995.86
2019-04-30T02:26:20.566Z,995.96
2019-04-30T02:27:21.643Z,995.95
2019-04-30T02:28:21.559Z,995.93
2019-04-30T02:29:20.547Z,995.93
2019-04-30T02:30:21.080Z,995.97
2019-04-30T02:31:22.874Z,995.94
2019-04-30T02:32:21.533Z,995.86
2019-04-30T02:33:20.539Z,995.88
2019-04-30T02:34:22.181Z,995.88
2019-04-30T02:35:21.510Z,995.79
2019-04-30T02:36:20.498Z,995.88
2019-04-30T02:37:21.130Z,995.87
2019-04-30T02:38:21.509Z,995.83
2019-04-30T02:39:20.532Z,995.78
2019-04-30T02:40:20.481Z,995.78
2019-04-30T02:41:20.475Z,995.82
2019-04-30T02:42:20.520Z,995.74
2019-04-30T02:43:20.521Z,995.84
2019-04-30T02:44:20.489Z,995.82
2019-04-30T02:45:20.472Z,995.85
2019-04-30T02:46:20.479Z,995.85
2019-04-30T02:47:20.512Z,995.88
2019-04-30T02:48:20.473Z,995.79
2019-04-30T02:49:20.692Z,995.87
2019-04-30T02:50:22.594Z,995.90
2019-04-30T02:51:22.915Z,995.79
2019-04-30T02:52:21.455Z,995.83
2019-04-30T02:53:20.450Z,995.74
2019-04-30T02:54:23.814Z,995.91
2019-04-30T02:55:20.435Z,995.87
2019-04-30T02:56:20.677Z,995.87
2019-04-30T02:57:23.252Z,995.92
2019-04-30T02:58:21.160Z,995.93
2019-04-30T02:59:21.423Z,995.89
2019-04-30T03:00:21.036Z,995.86
2019-04-30T03:01:20.625Z,995.84
2019-04-30T03:02:20.379Z,995.88
2019-04-30T03:03:20.556Z,995.85
2019-04-30T03:04:21.400Z,995.86
2019-04-30T03:05:20.503Z,995.86
2019-04-30T03:06:23.600Z,995.78
2019-04-30T03:07:20.379Z,995.85
2019-04-30T03:08:20.371Z,995.84
2019-04-30T03:09:20.530Z,995.84
2019-04-30T03:10:20.365Z,995.73
2019-04-30T03:11:20.984Z,995.73
2019-04-30T03:12:21.344Z,995.84
2019-04-30T03:13:20.337Z,995.74
2019-04-30T03:14:20.488Z,995.71
2019-04-30T03:15:22.948Z,995.74
2019-04-30T03:16:21.331Z,995.66
2019-04-30T03:17:21.073Z,995.74
2019-04-30T03:18:22.996Z,995.73
2019-04-30T03:19:21.321Z,995.74
2019-04-30T03:20:34.692Z,995.73
2019-04-30T03:21:22.293Z,995.77
2019-04-30T03:22:20.465Z,995.70
2019-04-30T03:23:21.288Z,995.83
2019-04-30T03:24:20.382Z,995.78
2019-04-30T03:25:20.262Z,995.75
2019-04-30T03:26:20.257Z,995.81
2019-04-30T03:27:21.928Z,995.79
2019-04-30T03:28:22.050Z,995.77
2019-04-30T03:29:23.971Z,995.75
2019-04-30T03:30:21.925Z,995.76
2019-04-30T03:31:22.606Z,995.76
2019-04-30T03:32:22.642Z,995.70
2019-04-30T03:33:22.861Z,995.72
2019-04-30T03:34:25.645Z,995.72
2019-04-30T03:35:23.138Z,995.74
2019-04-30T03:36:21.829Z,995.74
2019-04-30T03:37:21.220Z,995.70
2019-04-30T03:38:21.086Z,995.73
2019-04-30T03:39:20.216Z,995.76
2019-04-30T03:40:20.351Z,995.75
2019-04-30T03:41:21.210Z,995.80
2019-04-30T03:42:20.190Z,995.78
2019-04-30T03:43:20.267Z,995.73
2019-04-30T03:44:25.362Z,995.72
2019-04-30T03:45:22.201Z,995.73
2019-04-30T03:46:20.190Z,995.77
2019-04-30T03:47:20.450Z,995.78
2019-04-30T03:48:22.093Z,995.83
2019-04-30T03:49:20.465Z,995.79
2019-04-30T03:50:21.142Z,995.79
2019-04-30T03:51:20.113Z,995.76
2019-04-30T03:52:20.132Z,995.81
2019-04-30T03:53:20.394Z,995.90
2019-04-30T03:54:21.086Z,995.83
2019-04-30T03:55:20.968Z,995.87
2019-04-30T03:56:22.837Z,995.80
2019-04-30T03:57:21.086Z,995.88
2019-04-30T03:58:21.323Z,995.85
2019-04-30T03:59:21.053Z,995.82
2019-04-30T04:00:20.442Z,995.88
2019-04-30T04:01:21.045Z,995.85
2019-04-30T04:02:20.805Z,995.90
2019-04-30T04:03:21.057Z,995.84
2019-04-30T04:04:20.260Z,995.90
2019-04-30T04:05:21.045Z,995.89
2019-04-30T04:06:21.516Z,995.86
2019-04-30T04:07:20.438Z,995.87
2019-04-30T04:08:21.032Z,995.98
2019-04-30T04:09:22.348Z,995.89
2019-04-30T04:10:20.997Z,995.92
2019-04-30T04:11:20.084Z,995.87
2019-04-30T04:12:20.485Z,995.97
2019-04-30T04:13:20.962Z,995.99
2019-04-30T04:14:20.042Z,995.96
2019-04-30T04:15:20.131Z,996.00
2019-04-30T04:16:19.946Z,995.91
2019-04-30T04:17:20.324Z,995.92
2019-04-30T04:18:20.937Z,995.92
2019-04-30T04:19:19.933Z,995.91
2019-04-30T04:20:20.449Z,995.96
2019-04-30T04:21:20.912Z,995.96
2019-04-30T04:22:20.663Z,995.89
2019-04-30T04:23:20.925Z,995.86
2019-04-30T04:24:20.474Z,995.89
2019-04-30T04:25:20.927Z,995.88
2019-04-30T04:26:20.362Z,995.88
2019-04-30T04:27:20.885Z,995.84
2019-04-30T04:28:20.398Z,995.83
2019-04-30T04:29:20.884Z,995.86
2019-04-30T04:30:20.543Z,995.75
2019-04-30T04:31:20.847Z,995.81
2019-04-30T04:32:20.643Z,995.76
2019-04-30T04:33:20.843Z,995.79
2019-04-30T04:34:19.961Z,995.79
2019-04-30T04:35:20.078Z,995.77
2019-04-30T04:36:20.073Z,995.70
2019-04-30T04:37:20.808Z,995.66
2019-04-30T04:38:20.490Z,995.65
2019-04-30T04:39:20.779Z,995.63
2019-04-30T04:40:21.068Z,995.62
2019-04-30T04:41:20.765Z,995.61
2019-04-30T04:42:19.950Z,995.68
2019-04-30T04:43:20.334Z,995.59
2019-04-30T04:44:20.765Z,995.56
2019-04-30T04:45:20.047Z,995.41
2019-04-30T04:46:20.763Z,995.42
2019-04-30T04:47:40.776Z,995.38
2019-04-30T04:48:23.281Z,995.39
2019-04-30T04:49:20.943Z,995.29
2019-04-30T04:50:20.245Z,995.27
2019-04-30T04:51:36.610Z,995.22
2019-04-30T04:52:22.248Z,995.23
2019-04-30T04:53:20.683Z,995.09
2019-04-30T04:54:20.200Z,995.12
2019-04-30T04:55:22.179Z,995.09
2019-04-30T04:56:20.678Z,995.08
2019-04-30T04:57:22.494Z,995.04
2019-04-30T04:58:21.451Z,994.98
2019-04-30T04:59:20.673Z,994.94
2019-04-30T05:00:19.656Z,994.92
2019-04-30T05:01:20.380Z,994.86
2019-04-30T05:02:20.610Z,994.85
2019-04-30T05:03:20.198Z,994.78
2019-04-30T05:04:20.613Z,994.92
2019-04-30T05:05:19.615Z,994.83
2019-04-30T05:06:21.923Z,994.85
2019-04-30T05:07:20.581Z,994.88
2019-04-30T05:08:19.569Z,994.86
2019-04-30T05:09:19.616Z,994.81
2019-04-30T05:10:19.568Z,994.82
2019-04-30T05:11:19.587Z,994.81
2019-04-30T05:12:19.540Z,994.74
2019-04-30T05:13:19.547Z,994.66
2019-04-30T05:14:19.535Z,994.71
2019-04-30T05:15:19.605Z,994.67
2019-04-30T05:16:20.539Z,994.68
2019-04-30T05:17:19.589Z,994.60
2019-04-30T05:18:22.715Z,994.58
2019-04-30T05:19:19.535Z,994.60
2019-04-30T05:20:19.630Z,994.57
2019-04-30T05:21:19.520Z,994.53
2019-04-30T05:22:19.492Z,994.48
2019-04-30T05:23:21.934Z,994.51
2019-04-30T05:24:19.475Z,994.56
2019-04-30T05:25:19.482Z,994.51
2019-04-30T05:26:19.499Z,994.56
2019-04-30T05:27:19.822Z,994.52
2019-04-30T05:28:20.444Z,994.56
2019-04-30T05:29:19.450Z,994.48
2019-04-30T05:30:19.996Z,994.48
2019-04-30T05:31:21.118Z,994.53
2019-04-30T05:32:20.452Z,994.52
2019-04-30T05:33:19.438Z,994.44
2019-04-30T05:34:19.434Z,994.45
2019-04-30T05:35:19.444Z,994.46
2019-04-30T05:36:19.435Z,994.48
2019-04-30T05:37:19.423Z,994.41
2019-04-30T05:38:19.407Z,994.40
2019-04-30T05:39:19.410Z,994.39
2019-04-30T05:40:19.407Z,994.40
2019-04-30T05:41:19.428Z,994.37
2019-04-30T05:42:19.406Z,994.33
2019-04-30T05:43:19.429Z,994.39
2019-04-30T05:44:19.371Z,994.35
2019-04-30T05:45:19.434Z,994.36
2019-04-30T05:46:19.713Z,994.31
2019-04-30T05:47:20.372Z,994.37
2019-04-30T05:48:19.347Z,994.35
2019-04-30T05:49:20.458Z,994.36
2019-04-30T05:50:19.939Z,994.27
2019-04-30T05:51:21.317Z,994.30
2019-04-30T05:52:20.349Z,994.28
2019-04-30T05:53:19.340Z,994.23
2019-04-30T05:54:19.315Z,994.23
2019-04-30T05:55:19.842Z,994.29
2019-04-30T05:56:20.302Z,994.24
2019-04-30T05:57:19.792Z,994.26
2019-04-30T05:58:20.277Z,994.28
2019-04-30T05:59:20.663Z,994.25
2019-04-30T06:00:19.293Z,994.25
2019-04-30T06:01:19.759Z,994.22
2019-04-30T06:02:20.351Z,994.25
2019-04-30T06:03:27.586Z,994.22
2019-04-30T06:04:21.250Z,994.18
2019-04-30T06:05:19.236Z,994.20
2019-04-30T06:06:19.482Z,994.17
2019-04-30T06:07:20.268Z,994.24
2019-04-30T06:08:19.305Z,994.21
2019-04-30T06:09:31.029Z,994.22
2019-04-30T06:10:21.253Z,994.23
2019-04-30T06:11:19.324Z,994.20
2019-04-30T06:12:20.342Z,994.21
2019-04-30T06:13:20.175Z,994.21
2019-04-30T06:14:19.181Z,994.22
2019-04-30T06:15:19.447Z,994.19
2019-04-30T06:16:20.156Z,994.27
2019-04-30T06:17:19.715Z,994.25
2019-04-30T06:18:20.467Z,994.21
2019-04-30T06:19:20.136Z,994.21
2019-04-30T06:20:20.985Z,994.21
2019-04-30T06:21:21.581Z,994.26
2019-04-30T06:22:19.169Z,994.20
2019-04-30T06:23:20.120Z,994.19
2019-04-30T06:24:19.086Z,994.24
2019-04-30T06:25:30.587Z,994.30
2019-04-30T06:26:21.099Z,994.25
2019-04-30T06:27:20.094Z,994.28
2019-04-30T06:28:19.623Z,994.29
2019-04-30T06:29:20.087Z,994.27
2019-04-30T06:30:19.804Z,994.31
2019-04-30T06:31:31.873Z,994.33
2019-04-30T06:32:21.085Z,994.29
2019-04-30T06:33:19.395Z,994.32
2019-04-30T06:34:20.049Z,994.29
2019-04-30T06:35:20.056Z,994.32
2019-04-30T06:36:19.175Z,994.35
2019-04-30T06:37:20.034Z,994.29
2019-04-30T06:38:19.053Z,994.38
2019-04-30T06:39:19.035Z,994.33
2019-04-30T06:40:19.550Z,994.41
2019-04-30T06:41:20.010Z,994.40
2019-04-30T06:42:19.453Z,994.44
2019-04-30T06:43:20.068Z,994.40
2019-04-30T06:44:19.478Z,994.39
2019-04-30T06:45:19.975Z,994.38
2019-04-30T06:46:18.978Z,994.43
2019-04-30T06:47:31.807Z,994.41
2019-04-30T06:48:20.033Z,994.46
2019-04-30T06:49:19.969Z,994.45
2019-04-30T06:50:19.478Z,994.43
2019-04-30T06:51:19.961Z,994.41
2019-04-30T06:52:22.962Z,994.43
2019-04-30T06:53:19.947Z,994.45
2019-04-30T06:54:19.233Z,994.47
2019-04-30T06:55:19.922Z,994.47
2019-04-30T06:56:19.046Z,994.57
2019-04-30T06:57:20.050Z,994.54
2019-04-30T06:58:20.519Z,994.59
2019-04-30T06:59:20.909Z,994.54
2019-04-30T07:00:20.690Z,994.56
2019-04-30T07:01:20.895Z,994.54
2019-04-30T07:02:19.687Z,994.56
2019-04-30T07:03:19.930Z,994.57
2019-04-30T07:04:19.468Z,994.60
2019-04-30T07:05:19.863Z,994.65
2019-04-30T07:06:29.474Z,994.61
2019-04-30T07:07:23.077Z,994.58
2019-04-30T07:08:19.892Z,994.62
2019-04-30T07:09:19.704Z,994.62
2019-04-30T07:10:20.536Z,994.67
2019-04-30T07:11:19.826Z,994.71
2019-04-30T07:12:27.295Z,994.73
2019-04-30T07:13:45.815Z,994.66
2019-04-30T07:14:19.553Z,994.68
2019-04-30T07:15:20.649Z,994.72
2019-04-30T07:16:19.099Z,994.74
2019-04-30T07:17:19.869Z,994.70
2019-04-30T07:18:19.050Z,994.70
2019-04-30T07:19:31.805Z,994.68
2019-04-30T07:20:20.848Z,994.74
2019-04-30T07:21:19.816Z,994.76
2019-04-30T07:22:36.231Z,994.78
2019-04-30T07:23:19.826Z,994.75
2019-04-30T07:24:21.049Z,994.79
2019-04-30T07:25:19.525Z,994.74
2019-04-30T07:26:24.316Z,994.84
2019-04-30T07:27:23.887Z,994.86
2019-04-30T07:28:19.792Z,994.80
2019-04-30T07:29:19.621Z,994.75
2019-04-30T07:30:19.751Z,994.80
2019-04-30T07:31:19.362Z,994.81
2019-04-30T07:32:19.946Z,994.82
2019-04-30T07:33:20.963Z,994.86
2019-04-30T07:34:19.632Z,994.84
2019-04-30T07:35:19.782Z,995.00
2019-04-30T07:36:19.551Z,994.97
2019-04-30T07:37:24.301Z,994.97
2019-04-30T07:38:19.692Z,995.01
2019-04-30T07:39:19.217Z,995.02
2019-04-30T07:40:19.721Z,994.94
2019-04-30T07:41:19.047Z,995.03
2019-04-30T07:42:19.689Z,994.97
2019-04-30T07:43:19.064Z,995.00
2019-04-30T07:44:32.698Z,994.97
2019-04-30T07:45:25.416Z,995.05
2019-04-30T07:46:20.055Z,995.02
2019-04-30T07:47:19.818Z,995.02
2019-04-30T07:48:21.171Z,995.09
2019-04-30T07:49:20.774Z,995.05
2019-04-30T07:50:21.249Z,995.08
2019-04-30T07:51:21.178Z,995.11
2019-04-30T07:52:21.524Z,995.03
2019-04-30T07:53:19.617Z,995.09
2019-04-30T07:54:19.031Z,995.01
2019-04-30T07:55:19.862Z,995.08
2019-04-30T07:56:25.801Z,995.12
2019-04-30T07:57:20.575Z,995.18
2019-04-30T07:58:20.486Z,995.14
2019-04-30T07:59:20.155Z,995.13
2019-04-30T08:00:19.588Z,995.17
2019-04-30T08:01:19.622Z,995.23
2019-04-30T08:02:20.880Z,995.27
2019-04-30T08:04:20.557Z,995.22
2019-04-30T08:05:19.764Z,995.23
2019-04-30T08:06:19.017Z,995.21
2019-04-30T08:07:20.100Z,995.23
2019-04-30T08:08:24.994Z,995.24
2019-04-30T08:09:22.199Z,995.26
2019-04-30T08:09:36.832Z,995.24
2019-04-30T08:10:19.243Z,995.20
2019-04-30T08:11:25.768Z,995.23
2019-04-30T08:12:25.977Z,995.24
2019-04-30T08:13:21.827Z,995.25
2019-04-30T08:14:21.128Z,995.33
2019-04-30T08:15:19.829Z,995.32
2019-04-30T08:16:19.485Z,995.36
2019-04-30T08:17:18.933Z,995.37
2019-04-30T08:18:19.469Z,995.46
2019-04-30T08:19:19.097Z,995.45
2019-04-30T08:20:19.802Z,995.42
2019-04-30T08:21:19.447Z,995.41
2019-04-30T08:22:19.648Z,995.47
2019-04-30T08:23:33.438Z,995.45
2019-04-30T08:24:20.443Z,995.55
2019-04-30T08:25:19.912Z,995.54
2019-04-30T08:26:19.423Z,995.60
2019-04-30T08:27:19.678Z,995.57
2019-04-30T08:28:18.777Z,995.55
2019-04-30T08:29:19.539Z,995.55
2019-04-30T08:30:26.091Z,995.61
2019-04-30T08:31:20.347Z,995.65
2019-04-30T08:32:19.364Z,995.65
2019-04-30T08:33:19.373Z,995.63
2019-04-30T08:34:20.126Z,995.60
2019-04-30T08:35:19.814Z,995.61
2019-04-30T08:36:19.772Z,995.56
2019-04-30T08:37:20.306Z,995.54
2019-04-30T08:38:19.301Z,995.52
2019-04-30T08:39:19.718Z,995.48
2019-04-30T08:40:19.063Z,995.53
2019-04-30T08:41:19.492Z,995.55
2019-04-30T08:42:30.730Z,995.59
2019-04-30T08:43:20.265Z,995.53
2019-04-30T08:44:21.057Z,995.60
2019-04-30T08:45:19.766Z,995.62
2019-04-30T08:46:19.425Z,995.51
2019-04-30T08:47:18.763Z,995.52
2019-04-30T08:48:19.257Z,995.51
2019-04-30T08:49:19.253Z,995.61
2019-04-30T08:50:19.924Z,995.49
2019-04-30T08:51:19.642Z,995.54
2019-04-30T08:52:19.620Z,995.59
2019-04-30T08:53:27.552Z,995.60
2019-04-30T08:54:20.538Z,995.61
2019-04-30T08:55:22.004Z,995.58
2019-04-30T08:56:21.913Z,995.64
2019-04-30T08:57:19.410Z,995.61
2019-04-30T08:58:20.495Z,995.62
2019-04-30T08:59:19.520Z,995.63
2019-04-30T09:00:19.645Z,995.68
2019-04-30T09:01:19.734Z,995.67
2019-04-30T09:02:19.817Z,995.67
2019-04-30T09:03:19.508Z,995.61
2019-04-30T09:04:20.165Z,995.63
2019-04-30T09:05:19.164Z,995.60
2019-04-30T09:06:19.554Z,995.65
2019-04-30T09:07:19.710Z,995.66
2019-04-30T09:08:19.388Z,995.58
2019-04-30T09:09:18.759Z,995.64
2019-04-30T09:10:19.325Z,995.59
2019-04-30T09:11:24.666Z,995.52
2019-04-30T09:12:20.086Z,995.61
2019-04-30T09:13:19.253Z,995.65
2019-04-30T09:14:19.070Z,995.59
2019-04-30T09:15:18.857Z,995.59
2019-04-30T09:16:19.500Z,995.57
2019-04-30T09:17:20.039Z,995.54
2019-04-30T09:18:19.202Z,995.63
2019-04-30T09:19:20.995Z,995.60
2019-04-30T09:20:19.475Z,995.61
2019-04-30T09:21:19.091Z,995.65
2019-04-30T09:22:19.479Z,995.62
2019-04-30T09:23:18.687Z,995.62
2019-04-30T09:24:19.192Z,995.66
2019-04-30T09:25:19.565Z,995.74
2019-04-30T09:26:19.014Z,995.68
2019-04-30T09:27:19.485Z,995.62
2019-04-30T09:28:19.881Z,995.61
2019-04-30T09:29:19.119Z,995.65
2019-04-30T09:30:18.848Z,995.67
2019-04-30T09:31:19.774Z,995.70
2019-04-30T09:32:19.412Z,995.61
2019-04-30T09:33:19.444Z,995.67
2019-04-30T09:34:21.125Z,995.66
2019-04-30T09:35:19.635Z,995.64
2019-04-30T09:36:20.788Z,995.66
2019-04-30T09:37:18.919Z,995.59
2019-04-30T09:38:19.559Z,995.64
2019-04-30T09:39:19.952Z,995.69
2019-04-30T09:40:21.073Z,995.68
2019-04-30T09:41:19.339Z,995.69
2019-04-30T09:42:19.514Z,995.60
2019-04-30T09:43:18.906Z,995.72
2019-04-30T09:44:19.472Z,995.76
2019-04-30T09:45:18.681Z,995.65
2019-04-30T09:46:26.268Z,995.63
2019-04-30T09:47:20.189Z,995.64
2019-04-30T09:48:19.138Z,995.61
2019-04-30T09:49:19.492Z,995.65
2019-04-30T09:50:18.944Z,995.70
2019-04-30T09:51:20.584Z,995.66
2019-04-30T09:52:19.498Z,995.70
2019-04-30T09:53:19.589Z,995.68
2019-04-30T09:54:19.983Z,995.62
2019-04-30T09:55:19.373Z,995.59
2019-04-30T09:56:19.328Z,995.66
2019-04-30T09:57:19.318Z,995.60
2019-04-30T09:58:21.098Z,995.60
2019-04-30T09:59:19.050Z,995.65
2019-04-30T10:00:19.406Z,995.59
2019-04-30T10:01:18.787Z,995.61
2019-04-30T10:02:19.187Z,995.70
2019-04-30T10:03:19.885Z,995.56
2019-04-30T10:04:20.287Z,995.60
2019-04-30T10:05:19.900Z,995.65
2019-04-30T10:06:18.923Z,995.63
2019-04-30T10:07:19.526Z,995.56
2019-04-30T10:08:20.247Z,995.60
2019-04-30T10:09:19.335Z,995.59
2019-04-30T10:10:18.839Z,995.57
2019-04-30T10:11:17.670Z,995.59
2019-04-30T10:12:19.566Z,995.60
2019-04-30T10:13:17.648Z,995.55
2019-04-30T10:14:17.666Z,995.55
2019-04-30T10:15:18.926Z,995.52
2019-04-30T10:16:19.107Z,995.51
2019-04-30T10:17:17.640Z,995.53
2019-04-30T10:18:17.631Z,995.56
2019-04-30T10:19:19.125Z,995.52
2019-04-30T10:20:17.633Z,995.54
2019-04-30T10:21:19.100Z,995.54
2019-04-30T10:22:17.684Z,995.51
2019-04-30T10:23:19.412Z,995.42
2019-04-30T10:24:19.471Z,995.43
2019-04-30T10:25:17.605Z,995.39
2019-04-30T10:26:17.590Z,995.41
2019-04-30T10:27:19.149Z,995.35
2019-04-30T10:28:19.521Z,995.37
2019-04-30T10:29:17.558Z,995.35
2019-04-30T10:30:19.265Z,995.30
2019-04-30T10:31:18.753Z,995.37
2019-04-30T10:32:18.733Z,995.29
2019-04-30T10:33:19.510Z,995.36
2019-04-30T10:34:17.621Z,995.35
2019-04-30T10:35:18.366Z,995.36
2019-04-30T10:36:19.406Z,995.32
2019-04-30T10:37:18.994Z,995.34
2019-04-30T10:38:19.486Z,995.36
2019-04-30T10:39:21.333Z,995.32
2019-04-30T10:40:20.264Z,995.32
2019-04-30T10:41:18.906Z,995.30
2019-04-30T10:42:18.531Z,995.31
2019-04-30T10:43:19.669Z,995.19
2019-04-30T10:44:18.782Z,995.28
2019-04-30T10:45:18.613Z,995.18
2019-04-30T10:46:19.289Z,995.25
2019-04-30T10:47:19.176Z,995.21
2019-04-30T10:48:17.423Z,995.17
2019-04-30T10:49:19.236Z,995.19
2019-04-30T10:50:17.414Z,995.19
2019-04-30T10:51:18.946Z,995.16
2019-04-30T10:52:18.939Z,995.22
2019-04-30T10:53:17.386Z,995.14
2019-04-30T10:54:24.054Z,995.12
2019-04-30T10:55:19.417Z,995.17
2019-04-30T10:56:19.200Z,995.12
2019-04-30T10:57:18.412Z,995.24
2019-04-30T10:58:17.437Z,995.28
2019-04-30T10:59:17.372Z,995.21
2019-04-30T11:00:18.653Z,995.24
2019-04-30T11:01:19.145Z,995.24
2019-04-30T11:02:17.443Z,995.27
2019-04-30T11:03:22.707Z,995.25
2019-04-30T11:04:18.350Z,995.29
2019-04-30T11:05:18.761Z,995.27
2019-04-30T11:06:19.190Z,995.29
2019-04-30T11:07:18.688Z,995.30
2019-04-30T11:08:18.289Z,995.31
2019-04-30T11:09:17.341Z,995.31
2019-04-30T11:10:18.865Z,995.33
2019-04-30T11:11:18.273Z,995.23
2019-04-30T11:12:19.298Z,995.27
2019-04-30T11:13:17.273Z,995.26
2019-04-30T11:14:17.307Z,995.27
2019-04-30T11:15:20.665Z,995.30
2019-04-30T11:16:18.889Z,995.26
2019-04-30T11:17:19.533Z,995.38
2019-04-30T11:18:17.448Z,995.33
2019-04-30T11:19:19.043Z,995.25
2019-04-30T11:20:19.606Z,995.26
2019-04-30T11:21:19.481Z,995.20
2019-04-30T11:22:17.478Z,995.22
2019-04-30T11:23:20.767Z,995.20
2019-04-30T11:24:19.395Z,995.17
2019-04-30T11:25:17.367Z,995.18
2019-04-30T11:26:17.597Z,995.17
2019-04-30T11:27:17.829Z,995.12
2019-04-30T11:28:17.721Z,995.11
2019-04-30T11:29:17.416Z,995.12
2019-04-30T11:30:21.254Z,995.08
2019-04-30T11:31:19.330Z,995.17
2019-04-30T11:32:17.417Z,995.05
2019-04-30T11:33:17.379Z,995.10
2019-04-30T11:34:17.217Z,995.10
2019-04-30T11:35:18.453Z,995.03
2019-04-30T11:36:19.222Z,995.04
2019-04-30T11:37:17.150Z,995.10
2019-04-30T11:38:20.338Z,994.97
2019-04-30T11:39:18.605Z,995.06
2019-04-30T11:40:17.120Z,994.98
2019-04-30T11:41:29.508Z,995.01
2019-04-30T11:42:19.119Z,994.98
2019-04-30T11:43:18.250Z,994.95
2019-04-30T11:44:28.530Z,994.99
2019-04-30T11:45:19.507Z,994.90
2019-04-30T11:46:18.674Z,994.84
2019-04-30T11:47:17.089Z,994.95
2019-04-30T11:48:19.040Z,994.99
2019-04-30T11:49:17.053Z,994.94
2019-04-30T11:50:17.038Z,994.95
2019-04-30T11:51:19.267Z,994.99
2019-04-30T11:52:17.053Z,994.97
2019-04-30T11:53:25.276Z,994.93
2019-04-30T11:54:19.045Z,994.88
2019-04-30T11:55:19.294Z,994.82
2019-04-30T11:56:18.033Z,994.89
2019-04-30T11:57:18.721Z,994.82
2019-04-30T11:58:21.646Z,994.84
2019-04-30T11:59:19.549Z,994.80
2019-04-30T12:00:18.742Z,994.80
2019-04-30T12:01:16.997Z,994.81
2019-04-30T12:02:17.033Z,994.80
2019-04-30T12:03:18.961Z,994.82
2019-04-30T12:04:17.001Z,994.83
2019-04-30T12:05:20.549Z,994.81
2019-04-30T12:06:18.503Z,994.77
2019-04-30T12:07:16.985Z,994.77
2019-04-30T12:08:16.959Z,994.79
2019-04-30T12:09:18.491Z,994.75
2019-04-30T12:10:19.438Z,994.73
2019-04-30T12:11:16.923Z,994.82
2019-04-30T12:12:18.810Z,994.70
2019-04-30T12:13:16.901Z,994.69
2019-04-30T12:14:18.198Z,994.66
2019-04-30T12:15:19.245Z,994.68
2019-04-30T12:16:18.546Z,994.71
2019-04-30T12:17:16.939Z,994.79
2019-04-30T12:18:16.879Z,994.74
2019-04-30T12:19:18.834Z,994.78
2019-04-30T12:20:16.869Z,994.72
2019-04-30T12:21:16.907Z,994.74
2019-04-30T12:22:20.019Z,994.79
2019-04-30T12:23:16.844Z,994.77
2019-04-30T12:24:16.877Z,994.85
2019-04-30T12:25:18.579Z,994.81
2019-04-30T12:26:18.960Z,994.79
2019-04-30T12:27:18.427Z,994.78
2019-04-30T12:28:19.539Z,994.83